Time;durP1;ratioP1;P1;durP2;ratioP2;P2;SDS_P1;SDS_P2;PMS_P1;PMS_P2;Temp;Humidity;BMP_temperature;BMP_pressure;BME280_temperature;BME280_humidity;BME280_pressure;Samples;Min_cycle;Max_cycle;Signal;HPM_P1;HPM_P2
2023/04/08 00:00:17;;;;;;;4.75;2.67;;;;;;;8.31;49.85;100442.91;4990922;28;20054;-82
2023/04/08 00:02:43;;;;;;;4.50;3.20;;;;;;;8.28;50.06;100450.88;4991452;28;20058;-82
2023/04/08 00:05:10;;;;;;;4.47;2.88;;;;;;;8.24;49.98;100454.53;4990234;28;20141;-82
2023/04/08 00:07:37;;;;;;;3.42;2.88;;;;;;;8.21;50.07;100451.13;4990748;28;20054;-82
2023/04/08 00:10:07;;;;;;;4.32;2.85;;;;;;;8.18;50.18;100453.84;4991020;28;20142;-82
2023/04/08 00:12:33;;;;;;;5.03;2.85;;;;;;;8.16;49.94;100458.28;4989668;28;20058;-82
2023/04/08 00:15:00;;;;;;;5.78;2.80;;;;;;;8.12;49.93;100450.59;4990345;28;20054;-82
2023/04/08 00:17:26;;;;;;;3.38;2.78;;;;;;;8.10;49.94;100453.25;4990323;28;20517;-83
2023/04/08 00:19:54;;;;;;;4.60;2.78;;;;;;;8.04;50.17;100453.47;4990638;28;20092;-82
2023/04/08 00:22:20;;;;;;;3.83;2.97;;;;;;;8.03;50.52;100451.75;4990967;28;20145;-82
2023/04/08 00:24:47;;;;;;;4.72;2.95;;;;;;;7.98;50.16;100448.44;4990381;28;20070;-82
2023/04/08 00:27:14;;;;;;;4.60;3.08;;;;;;;7.96;50.17;100451.09;4988940;28;20528;-82
2023/04/08 00:29:40;;;;;;;5.65;3.10;;;;;;;7.92;50.46;100450.38;4989624;28;20062;-83
2023/04/08 00:32:07;;;;;;;4.85;3.35;;;;;;;7.91;50.64;100450.41;4990673;28;20515;-83
2023/04/08 00:34:33;;;;;;;4.03;2.80;;;;;;;7.89;50.77;100455.72;4990428;28;20050;-83
2023/04/08 00:37:00;;;;;;;4.03;2.78;;;;;;;7.89;50.86;100454.88;4990235;28;20064;-82
2023/04/08 00:39:27;;;;;;;3.65;2.78;;;;;;;7.88;50.57;100455.75;4989616;28;20097;-82
2023/04/08 00:41:53;;;;;;;3.83;2.80;;;;;;;7.85;51.20;100456.72;4990411;28;20530;-82
2023/04/08 00:44:20;;;;;;;5.40;2.90;;;;;;;7.83;51.07;100448.06;4993274;28;20575;-82
2023/04/08 00:46:47;;;;;;;5.03;2.90;;;;;;;7.80;50.88;100449.03;4993709;28;20517;-82
2023/04/08 00:49:14;;;;;;;6.80;3.00;;;;;;;7.77;51.21;100445.63;4993011;28;20069;-82
2023/04/08 00:51:40;;;;;;;5.70;2.97;;;;;;;7.75;51.19;100452.72;4992964;28;20061;-82
2023/04/08 00:54:07;;;;;;;4.20;3.20;;;;;;;7.72;51.41;100447.56;4984863;28;20077;-82
2023/04/08 00:56:34;;;;;;;4.93;3.60;;;;;;;7.69;51.11;100444.16;5000428;28;20084;-82
2023/04/08 00:59:02;;;;;;;5.47;3.15;;;;;;;7.68;51.61;100447.69;4995758;28;20066;-82
2023/04/08 01:02:22;;;;;;;6.07;2.85;;;;;;;7.65;51.67;100447.78;5013578;28;20060;-82
2023/04/08 01:05:02;;;;;;;5.68;3.40;;;;;;;7.66;52.10;100452.13;4988995;28;20065;-82
2023/04/08 01:07:35;;;;;;;4.25;2.83;;;;;;;7.67;51.77;100455.59;4992059;28;20065;-82
2023/04/08 01:10:08;;;;;;;7.90;3.13;;;;;;;7.68;51.83;100457.31;4993790;28;20050;-81
2023/04/08 01:12:39;;;;;;;;;;;;;;;7.68;51.65;100452.94;4994490;28;20050;-82
2023/04/08 01:15:07;;;;;;;5.88;2.92;;;;;;;7.72;51.52;100453.69;4991631;28;19921;-82
2023/04/08 01:17:35;;;;;;;4.97;2.85;;;;;;;7.71;51.78;100458.97;4993402;28;20050;-82
2023/04/08 01:20:04;;;;;;;3.95;3.00;;;;;;;7.68;51.86;100458.19;4993541;28;20508;-82
2023/04/08 01:22:46;;;;;;;5.05;3.00;;;;;;;7.66;52.19;100467.84;5000727;28;20049;-82
2023/04/08 01:25:20;;;;;;;4.63;3.47;;;;;;;7.68;52.28;100463.41;4991630;28;20113;-82
2023/04/08 01:27:48;;;;;;;4.28;2.92;;;;;;;7.68;51.99;100463.41;4992506;28;20049;-82
2023/04/08 01:30:17;;;;;;;4.82;3.17;;;;;;;7.71;52.00;100458.97;4997221;28;20049;-81
2023/04/08 01:32:45;;;;;;;6.05;3.17;;;;;;;7.73;52.01;100465.03;5011537;28;20057;-82
2023/04/08 01:35:14;;;;;;;3.20;2.90;;;;;;;7.73;52.13;100459.78;5012720;28;20061;-82
2023/04/08 01:37:42;;;;;;;4.85;3.03;;;;;;;7.75;52.15;100466.69;4995156;28;20066;-82
2023/04/08 01:40:10;;;;;;;5.72;3.05;;;;;;;7.75;52.07;100471.06;5012836;28;20054;-82
2023/04/08 01:42:38;;;;;;;6.15;3.20;;;;;;;7.77;52.26;100474.47;5011977;28;20101;-82
2023/04/08 01:45:06;;;;;;;5.20;3.35;;;;;;;7.77;52.25;100477.09;5012258;28;20057;-82
2023/04/08 01:47:33;;;;;;;4.93;3.03;;;;;;;7.76;52.13;100470.16;4994845;28;20580;-82
2023/04/08 01:50:00;;;;;;;3.97;2.97;;;;;;;7.75;52.55;100473.69;5012686;28;20558;-81
2023/04/08 01:52:28;;;;;;;4.07;2.97;;;;;;;7.77;52.54;100469.22;5012642;28;20065;-82
2023/04/08 01:54:55;;;;;;;4.55;2.97;;;;;;;7.77;52.71;100479.72;4994512;28;20513;-82
2023/04/08 01:57:24;;;;;;;3.67;3.08;;;;;;;7.77;52.77;100466.59;5012245;28;20078;-82
2023/04/08 01:59:52;;;;;;;5.03;3.30;;;;;;;7.78;53.08;100471.81;5012507;28;20436;-81
2023/04/08 02:02:21;;;;;;;4.05;2.90;;;;;;;7.80;53.15;100475.25;5012708;28;20062;-82
2023/04/08 02:04:48;;;;;;;5.15;2.88;;;;;;;7.84;53.34;100469.91;5012090;28;20064;-82
2023/04/08 02:07:15;;;;;;;5.47;3.10;;;;;;;7.86;53.31;100468.06;5011976;28;20455;-81
2023/04/08 02:09:42;;;;;;;4.60;3.03;;;;;;;7.89;52.99;100473.22;4994950;28;20519;-81
2023/04/08 02:12:09;;;;;;;3.70;2.88;;;;;;;7.90;52.95;100469.69;5012106;28;20476;-82
2023/04/08 02:14:35;;;;;;;5.13;2.85;;;;;;;7.91;53.38;100469.63;4994521;28;20061;-82
2023/04/08 02:17:15;;;;;;;5.55;3.05;;;;;;;7.91;53.69;100474.88;5011462;28;20505;-82
2023/04/08 02:19:53;;;;;;;6.13;3.22;;;;;;;7.92;54.11;100465.22;4995056;28;20431;-82
2023/04/08 02:22:39;;;;;;;3.80;2.83;;;;;;;7.95;54.11;100467.75;4994702;28;20116;-82
2023/04/08 02:25:10;;;;;;;4.53;2.88;;;;;;;8.01;53.86;100477.19;4994192;28;20050;-82
2023/04/08 02:27:39;;;;;;;5.05;3.10;;;;;;;8.05;53.78;100481.41;5011587;28;20501;-82
2023/04/08 02:30:08;;;;;;;4.25;3.25;;;;;;;8.07;53.63;100474.34;5011927;28;20058;-83
2023/04/08 02:32:36;;;;;;;5.47;2.92;;;;;;;8.12;53.57;100477.66;5011735;28;20578;-82
2023/04/08 02:35:04;;;;;;;6.85;3.40;;;;;;;8.13;54.04;100476.75;4993879;28;20057;-82
2023/04/08 02:37:31;;;;;;;4.25;3.30;;;;;;;8.17;53.96;100483.59;4994042;28;20085;-82
2023/04/08 02:39:57;;;;;;;5.75;3.10;;;;;;;8.21;53.61;100484.34;5011963;28;20062;-83
2023/04/08 02:42:24;;;;;;;6.00;2.97;;;;;;;8.23;53.53;100487.78;5011796;28;20072;-82
2023/04/08 02:44:51;;;;;;;3.25;2.80;;;;;;;8.26;53.74;100497.31;4994056;28;20046;-83
2023/04/08 02:47:17;;;;;;;3.85;3.05;;;;;;;8.27;54.02;100496.38;5011282;28;20061;-82
2023/04/08 02:49:44;;;;;;;5.53;3.10;;;;;;;8.30;53.87;100493.66;5011463;28;20571;-82
2023/04/08 02:52:10;;;;;;;4.93;3.30;;;;;;;8.33;53.64;100488.28;4994232;28;20428;-82
2023/04/08 02:54:37;;;;;;;5.00;2.90;;;;;;;8.35;53.70;100499.59;4993878;28;20053;-83
2023/04/08 02:57:04;;;;;;;3.60;3.15;;;;;;;8.35;53.81;100496.97;5010774;28;20496;-83
2023/04/08 02:59:30;;;;;;;6.05;3.38;;;;;;;8.37;53.78;100500.38;5011488;28;20128;-83
2023/04/08 03:01:57;;;;;;;3.95;3.25;;;;;;;8.38;53.73;100503.88;5011675;28;20089;-83
2023/04/08 03:04:24;;;;;;;5.68;3.40;;;;;;;8.40;54.00;100505.53;5011299;28;20064;-82
2023/04/08 03:06:53;;;;;;;4.85;3.78;;;;;;;8.40;54.14;100502.91;4992717;28;20128;-82
2023/04/08 03:09:19;;;;;;;4.55;3.20;;;;;;;8.43;53.97;100501.94;5011448;28;20068;-83
2023/04/08 03:11:51;;;;;;;4.70;3.38;;;;;;;8.45;54.01;100511.47;4994111;28;20070;-83
2023/04/08 03:14:20;;;;;;;4.35;3.35;;;;;;;8.49;54.44;100514.84;5011286;28;20112;-83
2023/04/08 03:16:47;;;;;;;5.10;3.20;;;;;;;8.50;54.60;100505.19;5010371;28;20059;-83
2023/04/08 03:19:14;;;;;;;4.68;3.40;;;;;;;8.50;54.20;100503.44;5011321;28;20057;-82
2023/04/08 03:21:40;;;;;;;4.15;3.00;;;;;;;8.51;54.61;100502.53;4993935;28;20137;-82
2023/04/08 03:24:07;;;;;;;4.93;3.20;;;;;;;8.53;54.68;100505.13;4993682;28;20054;-82
2023/04/08 03:26:34;;;;;;;4.53;3.22;;;;;;;8.53;54.84;100500.75;4992966;28;20064;-83
2023/04/08 03:29:00;;;;;;;4.80;3.30;;;;;;;8.56;54.57;100505.03;4993578;28;20483;-82
2023/04/08 03:31:29;;;;;;;4.70;3.50;;;;;;;8.58;55.04;100516.31;4993522;28;20061;-83
2023/04/08 03:33:56;;;;;;;4.28;3.40;;;;;;;8.62;54.85;100511.78;5011242;28;20543;-83
2023/04/08 03:36:22;;;;;;;3.88;3.30;;;;;;;8.62;55.06;100502.16;5010239;28;20508;-82
2023/04/08 03:38:49;;;;;;;4.82;3.90;;;;;;;8.64;54.65;100507.34;5010711;28;20089;-82
2023/04/08 03:41:16;;;;;;;5.13;3.78;;;;;;;8.64;54.75;100505.59;5010803;28;20053;-83
2023/04/08 03:43:42;;;;;;;4.35;3.45;;;;;;;8.66;54.88;100505.50;5010992;28;20062;-83
2023/04/08 03:46:09;;;;;;;5.97;3.47;;;;;;;8.66;55.04;100509.00;5010245;28;20520;-83
2023/04/08 03:48:36;;;;;;;5.43;3.75;;;;;;;8.67;55.17;100513.34;5010610;28;20066;-82
2023/04/08 03:51:02;;;;;;;6.03;3.88;;;;;;;8.67;55.16;100502.84;5010817;28;20058;-82
2023/04/08 03:53:29;;;;;;;4.82;3.70;;;;;;;8.68;55.08;100504.53;5010741;28;20068;-82
2023/04/08 03:55:56;;;;;;;5.03;3.92;;;;;;;8.69;54.89;100511.53;4992571;28;20062;-82
2023/04/08 03:58:23;;;;;;;5.28;3.97;;;;;;;8.70;55.18;100504.50;5010235;28;20068;-82
2023/04/08 04:00:49;;;;;;;7.10;4.07;;;;;;;8.70;54.89;100500.09;5010498;28;20054;-82
2023/04/08 04:03:16;;;;;;;5.72;3.83;;;;;;;8.70;55.15;100507.97;5010809;28;20065;-83
2023/04/08 04:08:10;;;;;;;4.65;3.78;;;;;;;8.70;55.24;100507.13;5006145;23;20058;-79
2023/04/08 04:10:37;;;;;;;5.57;4.00;;;;;;;8.67;55.51;100513.34;4991010;28;20051;-79
2023/04/08 04:13:03;;;;;;;5.30;3.88;;;;;;;8.67;55.36;100504.63;4991103;28;20052;-79
2023/04/08 04:15:30;;;;;;;5.07;3.83;;;;;;;8.66;55.46;100509.00;4990484;28;20173;-79
2023/04/08 04:17:57;;;;;;;6.20;4.10;;;;;;;8.64;55.50;100508.22;4991630;28;20403;-79
2023/04/08 04:20:24;;;;;;;7.72;4.57;;;;;;;8.64;55.47;100507.34;4994930;28;20142;-79
2023/04/08 04:22:51;;;;;;;5.05;4.03;;;;;;;8.63;55.74;100514.34;4995037;28;20077;-79
2023/04/08 04:25:17;;;;;;;5.13;4.13;;;;;;;8.62;55.77;100511.78;4994694;28;20110;-79
2023/04/08 04:27:44;;;;;;;7.18;4.57;;;;;;;8.60;55.94;100515.34;4994523;28;20050;-79
2023/04/08 04:30:14;;;;;;;4.80;4.10;;;;;;;8.60;55.73;100520.59;4993394;28;20072;-79
2023/04/08 04:32:42;;;;;;;5.15;3.83;;;;;;;8.61;56.09;100524.06;4994457;28;20081;-79
2023/04/08 04:35:10;;;;;;;6.55;4.10;;;;;;;8.61;56.20;100524.06;4994319;28;20057;-79
2023/04/08 04:37:36;;;;;;;5.82;4.00;;;;;;;8.59;55.76;100529.38;4994241;28;20054;-79
2023/04/08 04:40:04;;;;;;;7.18;4.13;;;;;;;8.58;56.15;100535.53;4993466;28;20051;-79
2023/04/08 04:42:31;;;;;;;8.57;4.82;;;;;;;8.56;56.07;100532.09;4994608;28;20051;-79
2023/04/08 04:44:58;;;;;;;6.97;4.55;;;;;;;8.56;56.24;100532.09;4994173;28;20204;-79
2023/04/08 04:47:25;;;;;;;5.97;4.75;;;;;;;8.55;56.57;100533.03;4994330;28;20137;-79
2023/04/08 04:49:51;;;;;;;5.78;4.43;;;;;;;8.55;56.54;100542.66;4994525;28;20094;-79
2023/04/08 04:52:18;;;;;;;7.03;4.90;;;;;;;8.55;56.45;100542.66;4994443;28;20423;-79
2023/04/08 04:54:44;;;;;;;6.28;4.47;;;;;;;8.54;56.59;100554.94;4994236;28;20066;-79
2023/04/08 04:57:11;;;;;;;7.93;4.68;;;;;;;8.56;56.90;100554.88;4993566;28;20076;-79
2023/04/08 04:59:37;;;;;;;6.82;4.35;;;;;;;8.58;56.64;100550.41;4993276;28;20058;-79
2023/04/08 05:02:04;;;;;;;6.85;5.25;;;;;;;8.60;56.74;100551.25;4994245;28;20058;-79
2023/04/08 05:04:37;;;;;;;6.15;5.07;;;;;;;8.62;56.93;100552.03;4994509;28;20153;-79
2023/04/08 05:07:03;;;;;;;7.05;4.95;;;;;;;8.63;57.05;100568.63;4992167;28;20141;-79
2023/04/08 05:09:30;;;;;;;7.05;4.68;;;;;;;8.65;57.18;100559.78;4994179;28;20602;-79
2023/04/08 05:12:05;;;;;;;7.13;4.70;;;;;;;8.67;56.99;100555.34;4993942;28;20112;-79
2023/04/08 05:14:32;;;;;;;6.68;4.65;;;;;;;8.69;56.99;100561.41;4992925;28;20503;-79
2023/04/08 05:16:58;;;;;;;6.03;4.57;;;;;;;8.71;56.86;100562.19;4993360;28;20051;-79
2023/04/08 05:19:25;;;;;;;7.45;5.35;;;;;;;8.72;56.95;100566.50;4994101;28;20062;-79
2023/04/08 05:21:51;;;;;;;5.05;4.40;;;;;;;8.73;56.68;100560.38;4993894;28;20054;-79
2023/04/08 05:24:18;;;;;;;5.70;4.20;;;;;;;8.73;56.72;100555.13;4993827;28;20062;-79
2023/04/08 05:26:45;;;;;;;6.10;4.85;;;;;;;8.73;56.71;100563.00;4993245;28;20054;-79
2023/04/08 05:29:11;;;;;;;7.50;4.72;;;;;;;8.73;56.84;100565.63;4993368;28;20711;-79
2023/04/08 05:31:38;;;;;;;5.55;4.88;;;;;;;8.75;57.09;100559.47;4993890;28;20404;-79
2023/04/08 05:34:05;;;;;;;6.68;5.18;;;;;;;8.76;57.20;100566.41;4992281;28;20066;-79
2023/04/08 05:36:31;;;;;;;5.85;4.47;;;;;;;8.77;57.22;100555.84;4991794;28;20558;-79
2023/04/08 05:38:58;;;;;;;7.72;5.00;;;;;;;8.80;57.19;100565.38;4993589;28;20053;-79
2023/04/08 05:41:27;;;;;;;6.78;4.82;;;;;;;8.81;57.33;100564.47;4993750;28;20061;-79
2023/04/08 05:43:54;;;;;;;6.28;4.68;;;;;;;8.84;57.24;100562.59;4993639;28;20056;-79
2023/04/08 05:46:21;;;;;;;7.93;5.60;;;;;;;8.86;57.25;100570.44;4993054;28;20060;-79
2023/04/08 05:48:47;;;;;;;7.55;5.63;;;;;;;8.89;57.27;100575.56;4993033;28;20073;-78
2023/04/08 05:51:16;;;;;;;9.30;5.50;;;;;;;8.90;57.57;100581.66;4993380;28;20051;-79
2023/04/08 05:53:46;;;;;;;8.20;5.38;;;;;;;8.92;57.72;100590.34;4993521;28;20250;-79
2023/04/08 05:56:12;;;;;;;9.43;5.47;;;;;;;8.95;57.47;100590.22;4991317;28;20082;-79
2023/04/08 05:58:39;;;;;;;8.82;6.20;;;;;;;8.94;57.41;100597.25;4991915;28;20161;-79
2023/04/08 06:01:06;;;;;;;6.63;5.65;;;;;;;8.94;57.14;100596.41;4992599;28;20055;-79
2023/04/08 06:03:32;;;;;;;8.48;6.13;;;;;;;8.92;56.94;100592.94;4993279;28;20058;-79
2023/04/08 06:05:59;;;;;;;8.02;5.97;;;;;;;8.89;57.13;100595.72;4991631;28;20499;-79
2023/04/08 06:08:26;;;;;;;10.55;6.50;;;;;;;8.85;56.92;100595.81;4992288;28;20089;-79
2023/04/08 06:10:52;;;;;;;7.47;6.03;;;;;;;8.82;57.41;100601.16;4992944;28;20058;-79
2023/04/08 06:13:20;;;;;;;9.43;6.72;;;;;;;8.80;57.55;100602.16;5007840;28;20475;-79
2023/04/08 06:15:50;;;;;;;9.18;6.20;;;;;;;8.77;57.57;100594.38;4992192;28;20050;-79
2023/04/08 06:18:17;;;;;;;8.85;6.90;;;;;;;8.77;57.89;100600.47;4992320;28;20062;-80
2023/04/08 06:20:43;;;;;;;8.77;6.68;;;;;;;8.78;58.19;100601.34;4991091;28;20581;-79
2023/04/08 06:23:10;;;;;;;8.95;7.07;;;;;;;8.79;58.07;100597.81;4991799;28;20133;-79
2023/04/08 06:25:36;;;;;;;11.80;7.65;;;;;;;8.84;58.53;100602.00;4992563;28;20050;-79
2023/04/08 06:28:03;;;;;;;11.52;7.45;;;;;;;8.88;58.43;100604.47;4992427;28;20054;-79
2023/04/08 06:30:29;;;;;;;12.27;8.38;;;;;;;8.92;58.55;100614.81;4992488;28;20097;-79
2023/04/08 06:32:56;;;;;;;11.13;7.72;;;;;;;8.96;58.34;100613.81;4992631;28;20086;-79
2023/04/08 06:35:23;;;;;;;13.98;7.90;;;;;;;9.00;58.38;100617.16;4992018;28;20069;-79
2023/04/08 06:37:49;;;;;;;9.52;7.43;;;;;;;9.04;58.11;100623.19;4992099;28;20534;-79
2023/04/08 06:40:16;;;;;;;9.70;7.15;;;;;;;9.07;58.17;100623.06;4990524;28;20504;-79
2023/04/08 06:42:43;;;;;;;11.38;8.32;;;;;;;9.08;58.11;100622.16;4992265;28;20483;-79
2023/04/08 06:45:10;;;;;;;11.23;8.13;;;;;;;9.10;58.06;100636.09;4991186;28;20170;-79
2023/04/08 06:47:36;;;;;;;12.13;7.50;;;;;;;9.10;58.43;100636.09;4991425;28;20145;-79
2023/04/08 06:50:03;;;;;;;11.65;7.95;;;;;;;9.12;58.43;100644.75;4992416;28;20109;-80
2023/04/08 06:52:30;;;;;;;11.43;8.00;;;;;;;9.14;58.31;100642.94;4991933;28;20137;-79
2023/04/08 06:54:56;;;;;;;11.85;7.43;;;;;;;9.15;58.31;100646.44;4991860;28;20474;-80
2023/04/08 06:57:25;;;;;;;10.75;8.40;;;;;;;9.14;58.26;100648.19;4990331;28;20050;-80
2023/04/08 06:59:52;;;;;;;12.23;8.35;;;;;;;9.16;58.32;100646.34;4991887;28;20058;-80
2023/04/08 07:02:19;;;;;;;11.65;8.27;;;;;;;9.16;58.32;100643.72;4991977;28;20058;-80
2023/04/08 07:04:45;;;;;;;10.82;8.38;;;;;;;9.18;58.31;100655.03;4991292;28;20133;-80
2023/04/08 07:07:12;;;;;;;11.52;8.23;;;;;;;9.19;58.60;100651.50;4990612;28;20080;-80
2023/04/08 07:09:42;;;;;;;14.30;8.55;;;;;;;9.22;58.75;100646.13;4989121;28;20137;-80
2023/04/08 07:12:08;;;;;;;12.95;8.48;;;;;;;9.27;58.63;100647.75;4990327;28;20058;-79
2023/04/08 07:14:35;;;;;;;12.57;9.15;;;;;;;9.30;58.81;100651.09;5006792;28;20054;-80
2023/04/08 07:17:01;;;;;;;11.88;8.73;;;;;;;9.33;58.32;100648.38;4990710;28;20748;-80
2023/04/08 07:19:28;;;;;;;13.68;8.50;;;;;;;9.37;58.57;100659.59;4991873;28;20088;-80
2023/04/08 07:21:55;;;;;;;10.98;8.65;;;;;;;9.39;58.58;100661.25;4990657;28;20069;-80
2023/04/08 07:24:21;;;;;;;14.15;9.70;;;;;;;9.43;58.57;100662.03;4991672;28;20573;-80
2023/04/08 07:26:48;;;;;;;11.90;9.10;;;;;;;9.47;58.40;100665.38;4990865;28;20092;-80
2023/04/08 07:29:15;;;;;;;13.82;9.20;;;;;;;9.49;58.29;100656.53;4991539;28;20133;-80
2023/04/08 07:31:42;;;;;;;13.52;9.73;;;;;;;9.51;58.37;100665.22;4991670;28;20061;-80
2023/04/08 07:34:09;;;;;;;11.88;9.50;;;;;;;9.54;58.40;100672.13;4991641;28;20137;-80
2023/04/08 07:36:37;;;;;;;10.68;8.90;;;;;;;9.56;58.60;100664.16;4990612;28;20063;-80
2023/04/08 07:39:03;;;;;;;12.73;8.98;;;;;;;9.58;58.91;100665.84;4991392;28;20097;-80
2023/04/08 07:41:30;;;;;;;13.63;8.98;;;;;;;9.63;58.78;100670.91;4991432;28;20056;-80
2023/04/08 07:43:56;;;;;;;14.63;9.35;;;;;;;9.68;58.70;100673.38;4991422;28;20419;-80
2023/04/08 07:46:23;;;;;;;12.05;9.35;;;;;;;9.73;58.83;100682.81;4991146;28;20060;-80
2023/04/08 07:48:50;;;;;;;13.23;10.07;;;;;;;9.78;58.74;100675.59;4990873;28;20484;-80
2023/04/08 07:51:17;;;;;;;14.50;9.48;;;;;;;9.84;58.66;100673.63;4991309;28;20066;-80
2023/04/08 07:53:46;;;;;;;14.05;10.27;;;;;;;9.88;58.76;100676.06;4991014;28;20137;-79
2023/04/08 07:56:14;;;;;;;11.98;9.75;;;;;;;9.92;58.55;100682.06;4990413;28;20058;-80
2023/04/08 07:58:41;;;;;;;15.45;9.80;;;;;;;9.95;58.46;100681.97;4990546;28;20161;-79
2023/04/08 08:01:15;;;;;;;15.15;10.30;;;;;;;9.97;58.51;100677.47;4990952;28;20061;-80
2023/04/08 08:03:41;;;;;;;12.93;9.40;;;;;;;10.01;58.36;100681.72;4991208;28;20050;-80
2023/04/08 08:06:10;;;;;;;11.82;9.15;;;;;;;10.04;58.79;100686.84;4990540;28;20491;-80
2023/04/08 08:08:37;;;;;;;13.32;9.38;;;;;;;10.09;58.72;100686.66;4990642;28;20744;-80
2023/04/08 08:11:04;;;;;;;19.10;9.88;;;;;;;10.15;58.53;100693.44;4990987;28;20050;-80
2023/04/08 08:13:30;;;;;;;13.90;9.55;;;;;;;10.20;58.51;100695.91;4990358;28;20062;-80
2023/04/08 08:15:57;;;;;;;12.43;8.95;;;;;;;10.24;58.61;100697.50;4989406;28;20078;-80
2023/04/08 08:18:23;;;;;;;15.60;9.60;;;;;;;10.28;58.65;100691.19;4989951;28;20463;-80
2023/04/08 08:20:50;;;;;;;12.40;10.02;;;;;;;10.33;58.38;100698.88;4990407;28;20054;-80
2023/04/08 08:23:16;;;;;;;11.38;9.40;;;;;;;10.35;58.32;100704.97;4990214;28;20058;-80
2023/04/08 08:25:43;;;;;;;12.50;9.68;;;;;;;10.37;58.15;100698.72;4989882;28;20054;-80
2023/04/08 08:28:09;;;;;;;12.30;9.95;;;;;;;10.39;58.21;100702.13;4990440;28;20050;-80
2023/04/08 08:30:37;;;;;;;12.43;9.13;;;;;;;10.41;58.14;100702.06;4991084;28;20058;-80
2023/04/08 08:33:03;;;;;;;14.60;10.27;;;;;;;10.42;58.12;100707.25;4990910;28;20054;-80
2023/04/08 08:35:30;;;;;;;12.63;9.75;;;;;;;10.45;58.28;100705.44;4990169;28;20496;-80
2023/04/08 08:37:56;;;;;;;11.77;8.88;;;;;;;10.48;58.29;100702.69;4990398;28;20108;-79
2023/04/08 08:40:23;;;;;;;11.77;9.20;;;;;;;10.47;57.91;100709.72;4990722;28;20065;-80
2023/04/08 08:42:51;;;;;;;15.02;10.18;;;;;;;10.48;57.80;100714.09;4991003;28;20062;-80
2023/04/08 08:45:20;;;;;;;14.13;10.23;;;;;;;10.48;58.21;100718.50;4990397;28;20089;-80
2023/04/08 08:47:47;;;;;;;11.45;9.48;;;;;;;10.48;58.03;100716.72;4989083;28;20062;-79
2023/04/08 08:50:16;;;;;;;14.07;10.43;;;;;;;10.49;58.07;100720.19;4990443;28;20062;-80
2023/04/08 08:52:50;;;;;;;12.23;9.90;;;;;;;10.45;58.29;100727.38;4990493;28;20046;-80
2023/04/08 08:55:21;;;;;;;12.68;10.15;;;;;;;10.48;58.38;100722.00;4989882;28;20061;-79
2023/04/08 08:58:07;;;;;;;14.63;10.40;;;;;;;10.50;58.21;100729.81;4989977;28;20184;-80
2023/04/08 09:00:39;;;;;;;14.18;10.13;;;;;;;10.50;58.13;100728.03;4990343;28;20054;-80
2023/04/08 09:03:28;;;;;;;15.27;9.90;;;;;;;10.49;58.88;100739.50;4990118;28;20470;-79
2023/04/08 09:06:00;;;;;;;15.23;10.90;;;;;;;10.55;58.48;100739.22;4993698;28;20058;-80
2023/04/08 09:08:30;;;;;;;15.77;11.20;;;;;;;10.59;58.38;100733.84;4993438;28;20570;-80
2023/04/08 09:11:16;;;;;;;15.05;11.18;;;;;;;10.58;58.54;100743.50;4994210;28;20099;-80
2023/04/08 09:13:44;;;;;;;16.50;11.40;;;;;;;10.65;58.29;100738.88;4994532;28;20483;-80
2023/04/08 09:16:13;;;;;;;16.83;11.73;;;;;;;10.66;58.18;100743.22;4993470;28;20085;-81
2023/04/08 09:18:43;;;;;;;14.98;11.23;;;;;;;10.66;58.09;100738.78;4993092;28;20145;-80
2023/04/08 09:21:11;;;;;;;16.15;12.02;;;;;;;10.68;58.16;100742.22;4993135;28;20137;-80
2023/04/08 09:23:40;;;;;;;18.00;12.27;;;;;;;10.70;58.79;100734.25;4975074;28;20059;-80
2023/04/08 09:26:11;;;;;;;16.67;12.32;;;;;;;10.74;59.07;100743.75;4992213;28;20137;-79
2023/04/08 09:28:39;;;;;;;20.08;13.63;;;;;;;10.84;59.13;100740.72;4992863;28;20453;-79
2023/04/08 09:31:26;;;;;;;19.67;13.90;;;;;;;10.89;59.06;100746.66;4993275;28;20054;-80
2023/04/08 09:33:58;;;;;;;16.67;12.00;;;;;;;11.01;58.89;100745.25;4993145;28;20050;-79
2023/04/08 09:36:26;;;;;;;16.52;12.35;;;;;;;11.10;58.75;100744.03;4992698;28;20522;-80
2023/04/08 09:38:54;;;;;;;19.33;14.10;;;;;;;11.18;58.85;100748.03;4993113;28;20419;-79
2023/04/08 09:41:22;;;;;;;19.75;14.45;;;;;;;11.26;58.99;100737.16;4993306;28;20625;-79
2023/04/08 09:43:57;;;;;;;22.25;15.10;;;;;;;11.31;58.81;100737.81;4993561;28;20054;-79
2023/04/08 09:46:28;;;;;;;20.90;14.75;;;;;;;11.41;58.50;100737.41;4992972;28;20063;-79
2023/04/08 09:49:11;;;;;;;25.13;15.48;;;;;;;11.47;58.78;100729.19;4993034;28;20073;-79
2023/04/08 09:51:56;;;;;;;20.67;15.73;;;;;;;11.56;58.48;100744.59;4993406;28;20502;-79
2023/04/08 09:54:32;;;;;;;25.25;17.45;;;;;;;11.66;58.21;100749.47;4993393;28;20149;-79
2023/04/08 09:57:09;;;;;;;24.98;16.77;;;;;;;11.68;58.28;100737.94;4992594;28;20050;-79
2023/04/08 09:59:38;;;;;;;23.38;16.85;;;;;;;11.75;57.88;100742.91;4993162;28;20057;-79
2023/04/08 10:02:08;;;;;;;25.67;18.75;;;;;;;11.78;57.78;100746.25;4991884;28;20069;-79
2023/04/08 10:04:40;;;;;;;24.80;18.08;;;;;;;11.80;57.78;100749.69;4992057;28;20058;-79
2023/04/08 10:07:08;;;;;;;27.15;18.98;;;;;;;11.82;57.76;100745.19;5048092;23;20105;-82
2023/04/08 10:09:37;;;;;;;26.92;18.95;;;;;;;11.85;57.68;100741.56;4991911;28;20400;-84
2023/04/08 10:12:04;;;;;;;27.27;19.00;;;;;;;11.88;57.92;100740.56;4991490;28;20499;-82
2023/04/08 10:14:31;;;;;;;27.65;20.45;;;;;;;11.91;58.08;100746.56;4991398;28;20058;-81
2023/04/08 10:17:23;;;;;;;26.30;19.63;;;;;;;11.91;58.15;100749.19;4988755;28;20492;-83
2023/04/08 10:19:49;;;;;;;28.02;19.40;;;;;;;12.01;57.92;100749.63;4990843;28;20458;-84
2023/04/08 10:22:46;;;;;;;27.02;20.42;;;;;;;12.01;58.07;100744.34;4992584;28;20067;-83
2023/04/08 10:25:16;;;;;;;27.90;20.70;;;;;;;12.11;57.92;100750.06;4979981;28;20058;-82
2023/04/08 10:27:43;;;;;;;30.50;21.30;;;;;;;12.16;57.88;100745.44;4991120;28;20424;-83
2023/04/08 10:30:43;;;;;;;28.65;20.55;;;;;;;12.18;57.73;100754.13;4989427;28;20716;-82
2023/04/08 10:33:24;;;;;;;29.05;20.42;;;;;;;12.26;57.56;100751.09;4957811;28;20061;-85
2023/04/08 10:35:58;;;;;;;28.35;20.70;;;;;;;12.29;57.69;100750.13;4990511;28;20104;-83
2023/04/08 10:38:24;;;;;;;27.05;20.60;;;;;;;12.32;57.43;100756.09;4989931;28;20495;-82
2023/04/08 10:40:53;;;;;;;26.15;19.92;;;;;;;12.33;57.55;100755.16;4990904;28;20069;-83
2023/04/08 10:43:20;;;;;;;26.65;19.08;;;;;;;12.36;57.55;100752.38;4992360;28;20074;-83
2023/04/08 10:45:50;;;;;;;26.70;19.52;;;;;;;12.37;57.62;100748.81;4991901;28;20057;-83
2023/04/08 10:48:23;;;;;;;26.08;19.02;;;;;;;12.38;57.55;100753.16;4990962;28;20144;-84
2023/04/08 10:50:54;;;;;;;24.27;18.25;;;;;;;12.39;57.34;100754.03;4990562;28;20054;-82
2023/04/08 10:53:29;;;;;;;27.67;19.25;;;;;;;12.38;57.25;100755.78;5006995;28;20050;-82
2023/04/08 10:56:05;;;;;;;30.10;20.42;;;;;;;12.37;57.41;100758.50;4991270;28;20514;-82
2023/04/08 10:58:34;;;;;;;30.05;21.63;;;;;;;12.40;57.18;100757.53;4975142;28;20050;-84
2023/04/08 11:01:07;;;;;;;29.45;20.30;;;;;;;12.36;57.27;100760.31;4991254;28;20451;-85
2023/04/08 11:03:35;;;;;;;27.08;19.98;;;;;;;12.40;57.45;100768.94;4991556;28;20066;-83
2023/04/08 11:06:03;;;;;;;30.88;20.00;;;;;;;12.40;57.33;100776.84;4991067;28;20097;-84
2023/04/08 11:08:33;;;;;;;27.52;20.95;;;;;;;12.41;57.14;100773.28;4991023;28;20064;-83
2023/04/08 11:11:00;;;;;;;27.23;19.45;;;;;;;12.42;57.19;100769.72;4991933;28;20057;-84
2023/04/08 11:13:28;;;;;;;28.88;20.58;;;;;;;12.44;57.17;100775.78;4990273;28;20058;-83
2023/04/08 11:15:58;;;;;;;28.60;20.45;;;;;;;12.43;57.25;100775.84;4990065;28;20047;-82
2023/04/08 11:18:26;;;;;;;28.83;20.52;;;;;;;12.46;57.37;100771.28;4973774;28;20613;-83
2023/04/08 11:20:53;;;;;;;28.13;20.73;;;;;;;12.47;57.12;100772.13;4974358;28;20069;-82
2023/04/08 11:23:21;;;;;;;28.98;20.27;;;;;;;12.47;57.19;100770.34;4990641;28;20082;-83
2023/04/08 11:25:48;;;;;;;31.88;21.15;;;;;;;12.46;57.04;100775.69;4991551;28;20427;-84
2023/04/08 11:28:16;;;;;;;29.75;20.25;;;;;;;12.47;57.06;100770.34;4990244;28;20053;-83
2023/04/08 11:30:43;;;;;;;27.83;20.85;;;;;;;12.47;57.21;100769.47;4989064;28;20496;-82
2023/04/08 11:33:11;;;;;;;29.15;21.38;;;;;;;12.48;57.32;100769.41;4991716;28;20786;-83